Time;durP1;ratioP1;P1;durP2;ratioP2;P2;SDS_P1;SDS_P2;PMS_P1;PMS_P2;Temp;Humidity;BMP_temperature;BMP_pressure;BME280_temperature;BME280_humidity;BME280_pressure;Samples;Min_cycle;Max_cycle;Signal;HPM_P1;HPM_P2
2023/01/08 00:00:29;;;;;;;;;;;9.90;99.90;;;;;;5019152;28;19905;-74
2023/01/08 00:02:54;;;;;;;;;;;9.90;99.90;;;;;;5036735;28;19962;-75
2023/01/08 00:05:20;;;;;;;;;;;10.00;99.90;;;;;;5036597;28;19905;-74
2023/01/08 00:07:45;;;;;;;;;;;10.00;99.90;;;;;;5036612;28;19909;-74
2023/01/08 00:10:10;;;;;;;;;;;9.80;99.90;;;;;;5036389;28;19909;-74
2023/01/08 00:12:36;;;;;;;;;;;9.80;99.90;;;;;;5036340;28;19905;-75
2023/01/08 00:15:01;;;;;;;;;;;9.80;99.90;;;;;;5018940;28;19934;-74
2023/01/08 00:17:27;;;;;;;;;;;9.70;99.90;;;;;;5018569;28;19912;-75
2023/01/08 00:19:52;;;;;;;;;;;9.70;99.90;;;;;;5036328;28;19905;-74
2023/01/08 00:22:18;;;;;;;;;;;9.70;99.90;;;;;;5036071;28;19992;-74
2023/01/08 00:24:43;;;;;;;;;;;9.70;99.90;;;;;;5018258;28;19909;-74
2023/01/08 00:27:09;;;;;;;;;;;9.80;99.90;;;;;;5035817;28;19909;-74
2023/01/08 00:29:36;;;;;;;;;;;9.70;99.90;;;;;;5017977;28;19913;-72
2023/01/08 00:32:02;;;;;;;;;;;9.70;99.90;;;;;;5018152;28;20269;-73
2023/01/08 00:34:27;;;;;;;;;;;9.70;99.90;;;;;;5035898;28;20371;-73
2023/01/08 00:36:53;;;;;;;;;;;9.60;99.90;;;;;;5035591;28;19955;-74
2023/01/08 00:39:18;;;;;;;;;;;9.70;99.90;;;;;;5017802;28;19911;-74
2023/01/08 00:41:44;;;;;;;;;;;9.60;99.90;;;;;;5018574;28;19909;-74
2023/01/08 00:44:10;;;;;;;;;;;9.60;99.90;;;;;;5017624;28;19908;-74
2023/01/08 00:46:35;;;;;;;;;;;9.50;99.90;;;;;;5017555;28;19921;-75
2023/01/08 00:49:01;;;;;;;;;;;9.60;99.90;;;;;;5035656;28;19948;-75
2023/01/08 00:51:26;;;;;;;;;;;9.50;99.90;;;;;;5035562;28;20251;-74
2023/01/08 00:53:52;;;;;;;;;;;9.50;99.90;;;;;;5035835;28;19928;-74
2023/01/08 00:56:17;;;;;;;;;;;9.40;99.90;;;;;;5020392;28;19912;-74
2023/01/08 00:58:43;;;;;;;;;;;9.40;99.90;;;;;;5019964;28;19905;-73
2023/01/08 01:01:12;;;;;;;;;;;9.50;99.90;;;;;;5017889;28;19905;-73
2023/01/08 01:03:38;;;;;;;;;;;9.50;99.90;;;;;;5035384;28;20055;-74
2023/01/08 01:06:04;;;;;;;;;;;9.70;99.90;;;;;;5017621;28;19967;-74
2023/01/08 01:08:29;;;;;;;;;;;9.60;99.90;;;;;;5035951;28;19920;-74
2023/01/08 01:10:55;;;;;;;;;;;9.70;99.90;;;;;;5035161;28;19912;-74
2023/01/08 01:13:21;;;;;;;;;;;9.60;99.90;;;;;;5035212;28;19911;-74
2023/01/08 01:15:55;;;;;;;;;;;9.70;99.90;;;;;;5034596;28;19920;-74
2023/01/08 01:18:21;;;;;;;;;;;9.60;99.90;;;;;;5021726;28;19932;-74
2023/01/08 01:20:46;;;;;;;;;;;9.60;99.90;;;;;;5044284;28;19905;-73
2023/01/08 01:23:11;;;;;;;;;;;9.50;99.90;;;;;;5041787;28;20000;-73
2023/01/08 01:25:37;;;;;;;;;;;9.50;99.90;;;;;;5018088;28;19905;-73
2023/01/08 01:28:02;;;;;;;;;;;9.50;99.90;;;;;;5035420;28;20338;-74
2023/01/08 01:30:28;;;;;;;;;;;9.40;99.90;;;;;;5034814;28;20018;-74
2023/01/08 01:32:53;;;;;;;;;;;9.40;99.90;;;;;;5034759;28;20355;-74
2023/01/08 01:35:19;;;;;;;;;;;9.40;99.90;;;;;;5035203;28;19905;-74
2023/01/08 01:37:44;;;;;;;;;;;9.40;99.90;;;;;;5047165;28;19952;-75
2023/01/08 01:40:10;;;;;;;;;;;9.40;99.90;;;;;;5054672;28;20254;-75
2023/01/08 01:42:38;;;;;;;;;;;9.40;99.90;;;;;;5054599;28;20027;-75
2023/01/08 01:45:10;;;;;;;;;;;9.40;99.90;;;;;;5054842;28;20000;-73
2023/01/08 01:47:36;;;;;;;;;;;9.40;99.90;;;;;;5057261;28;20360;-73
2023/01/08 01:50:17;;;;;;;;;;;9.40;99.90;;;;;;5035751;28;19904;-74
2023/01/08 01:53:06;;;;;;;;;;;9.40;99.90;;;;;;5037086;28;20424;-74
2023/01/08 01:55:32;;;;;;;;;;;9.60;99.90;;;;;;5023244;28;19911;-74
2023/01/08 01:58:07;;;;;;;;;;;9.60;99.90;;;;;;5054548;28;19905;-75
2023/01/08 02:00:33;;;;;;;;;;;9.60;99.90;;;;;;5055794;28;19948;-74
2023/01/08 02:02:59;;;;;;;;;;;9.60;99.90;;;;;;5037814;28;19909;-74
2023/01/08 02:05:27;;;;;;;;;;;9.60;99.90;;;;;;5038072;28;19915;-74
2023/01/08 02:08:01;;;;;;;;;;;9.60;99.90;;;;;;5055863;28;20431;-74
2023/01/08 02:10:31;;;;;;;;;;;9.50;99.90;;;;;;5042502;28;19905;-74
2023/01/08 02:12:57;;;;;;;;;;;9.50;99.90;;;;;;5057612;28;19905;-75
2023/01/08 02:15:26;;;;;;;;;;;9.60;99.90;;;;;;5037489;28;19970;-74
2023/01/08 02:17:58;;;;;;;;;;;9.60;99.90;;;;;;5037939;28;19905;-74
2023/01/08 02:20:30;;;;;;;;;;;9.50;99.90;;;;;;5036485;28;19905;-74
2023/01/08 02:22:55;;;;;;;;;;;9.40;99.90;;;;;;5054613;28;19951;-74
2023/01/08 02:25:24;;;;;;;;;;;9.30;99.90;;;;;;5053785;28;19974;-74
2023/01/08 02:27:50;;;;;;;;;;;9.40;99.90;;;;;;5053883;28;19915;-74
2023/01/08 02:30:16;;;;;;;;;;;9.40;99.90;;;;;;5054292;28;20424;-75
2023/01/08 02:32:41;;;;;;;;;;;9.30;99.90;;;;;;5035900;28;19955;-75
2023/01/08 02:35:08;;;;;;;;;;;9.40;99.90;;;;;;5035828;28;19935;-74
2023/01/08 02:37:34;;;;;;;;;;;9.40;99.90;;;;;;5035891;28;19905;-74
2023/01/08 02:40:12;;;;;;;;;;;9.40;99.90;;;;;;5056972;28;19948;-74
2023/01/08 02:42:46;;;;;;;;;;;9.40;99.90;;;;;;5054016;28;19959;-74
2023/01/08 02:45:26;;;;;;;;;;;9.30;99.90;;;;;;5053725;28;19905;-74
2023/01/08 02:47:54;;;;;;;;;;;9.30;99.90;;;;;;5053985;28;19909;-75
2023/01/08 02:50:22;;;;;;;;;;;9.40;99.90;;;;;;5053875;28;19905;-75
2023/01/08 02:53:02;;;;;;;;;;;9.40;99.90;;;;;;5054594;28;19904;-75
2023/01/08 02:55:29;;;;;;;;;;;9.40;99.90;;;;;;5054013;28;19905;-75
2023/01/08 02:57:55;;;;;;;;;;;9.40;99.90;;;;;;5055339;28;19909;-75
2023/01/08 03:00:21;;;;;;;;;;;9.60;99.90;;;;;;5036070;28;19909;-75
2023/01/08 03:02:46;;;;;;;;;;;9.60;99.90;;;;;;5042093;28;19905;-75
2023/01/08 03:05:16;;;;;;;;;;;9.60;99.90;;;;;;5059675;28;20047;-75
2023/01/08 03:07:42;;;;;;;;;;;9.70;99.90;;;;;;5057861;28;19916;-75
2023/01/08 03:10:07;;;;;;;;;;;9.70;99.90;;;;;;5060137;28;19905;-74
2023/01/08 03:12:42;;;;;;;;;;;9.70;99.90;;;;;;5058549;28;19951;-74
2023/01/08 03:15:08;;;;;;;;;;;9.70;99.90;;;;;;5056829;28;19920;-74
2023/01/08 03:17:36;;;;;;;;;;;9.60;99.90;;;;;;5058439;28;19905;-75
2023/01/08 03:20:05;;;;;;;;;;;9.60;99.90;;;;;;5058098;28;19909;-74
2023/01/08 03:22:32;;;;;;;;;;;9.50;99.90;;;;;;5057508;28;19951;-74
2023/01/08 03:24:57;;;;;;;;;;;9.40;99.90;;;;;;5057096;28;19905;-76
2023/01/08 03:27:25;;;;;;;;;;;9.50;99.90;;;;;;5039829;28;19915;-74
2023/01/08 03:29:53;;;;;;;;;;;9.50;99.90;;;;;;5057569;28;19911;-75
2023/01/08 03:32:19;;;;;;;;;;;9.60;99.90;;;;;;5039040;28;20357;-75
2023/01/08 03:34:46;;;;;;;;;;;9.60;99.90;;;;;;5056886;28;19995;-74
2023/01/08 03:37:12;;;;;;;;;;;9.60;99.90;;;;;;5056909;28;19905;-75
2023/01/08 03:39:44;;;;;;;;;;;9.60;99.90;;;;;;5057005;28;19905;-75
2023/01/08 03:42:11;;;;;;;;;;;9.60;99.90;;;;;;5039217;28;19905;-74
2023/01/08 03:44:37;;;;;;;;;;;9.50;99.90;;;;;;5056654;28;19958;-74
2023/01/08 03:47:02;;;;;;;;;;;9.40;99.90;;;;;;5038783;28;20301;-74
2023/01/08 03:49:28;;;;;;;;;;;9.40;99.90;;;;;;5059627;28;19904;-75
2023/01/08 03:51:54;;;;;;;;;;;9.50;99.90;;;;;;5057331;28;20280;-75
2023/01/08 03:54:21;;;;;;;;;;;9.60;99.90;;;;;;5057327;28;19915;-75
2023/01/08 03:56:47;;;;;;;;;;;9.50;99.90;;;;;;5059080;28;20288;-74
2023/01/08 03:59:13;;;;;;;;;;;9.50;99.90;;;;;;5038806;28;19905;-74
2023/01/08 04:01:39;;;;;;;;;;;9.60;99.90;;;;;;5057617;28;19995;-75
2023/01/08 04:04:05;;;;;;;;;;;9.50;99.90;;;;;;5058652;28;19940;-74
2023/01/08 04:06:30;;;;;;;;;;;9.50;99.90;;;;;;5039308;28;19904;-75
2023/01/08 04:08:56;;;;;;;;;;;9.70;99.90;;;;;;5056739;28;19936;-75
2023/01/08 04:11:21;;;;;;;;;;;9.80;99.90;;;;;;5057546;28;19905;-75
2023/01/08 04:13:47;;;;;;;;;;;9.80;99.90;;;;;;5056008;28;19912;-75
2023/01/08 04:16:12;;;;;;;;;;;9.70;99.90;;;;;;5056694;28;20476;-75
2023/01/08 04:18:38;;;;;;;;;;;9.70;99.90;;;;;;5056136;28;19905;-74
2023/01/08 04:21:03;;;;;;;;;;;9.80;99.90;;;;;;5056409;28;19940;-74
2023/01/08 04:23:28;;;;;;;;;;;9.80;99.90;;;;;;5056382;28;20289;-75
2023/01/08 04:25:54;;;;;;;;;;;9.70;99.90;;;;;;5056171;28;19909;-75
2023/01/08 04:28:20;;;;;;;;;;;9.60;99.90;;;;;;5055971;28;19931;-75
2023/01/08 04:30:45;;;;;;;;;;;9.50;99.90;;;;;;5037838;28;19950;-75
2023/01/08 04:33:11;;;;;;;;;;;9.30;99.90;;;;;;5055996;28;19905;-74
2023/01/08 04:35:36;;;;;;;;;;;9.10;99.90;;;;;;5055744;28;19908;-74
2023/01/08 04:38:02;;;;;;;;;;;9.00;99.90;;;;;;5055790;28;19905;-73
2023/01/08 04:40:27;;;;;;;;;;;9.00;99.90;;;;;;5055577;28;19904;-73
2023/01/08 04:42:53;;;;;;;;;;;9.00;99.90;;;;;;5038101;28;20354;-73
2023/01/08 04:45:18;;;;;;;;;;;9.00;99.90;;;;;;5055342;28;19905;-74
2023/01/08 04:47:44;;;;;;;;;;;9.00;99.90;;;;;;5037319;28;20265;-72
2023/01/08 04:50:09;;;;;;;;;;;8.90;99.90;;;;;;5055529;28;19904;-73
2023/01/08 04:52:35;;;;;;;;;;;8.90;99.90;;;;;;5038539;28;19908;-72
2023/01/08 04:55:00;;;;;;;;;;;9.00;99.90;;;;;;5056116;28;19905;-73
2023/01/08 04:57:26;;;;;;;;;;;9.00;99.90;;;;;;5056597;28;19916;-72
2023/01/08 04:59:51;;;;;;;;;;;9.00;99.90;;;;;;5056475;28;19905;-73
2023/01/08 05:02:16;;;;;;;;;;;8.90;99.90;;;;;;5055320;28;19908;-72
2023/01/08 05:04:42;;;;;;;;;;;8.90;99.90;;;;;;5055385;28;19951;-72
2023/01/08 05:07:07;;;;;;;;;;;8.90;99.90;;;;;;5055838;28;19909;-74
2023/01/08 05:09:33;;;;;;;;;;;8.80;99.90;;;;;;5054739;28;19908;-72
2023/01/08 05:11:58;;;;;;;;;;;8.80;99.90;;;;;;5054997;28;19904;-72
2023/01/08 05:14:24;;;;;;;;;;;9.00;99.90;;;;;;5055103;28;19950;-73
2023/01/08 05:16:49;;;;;;;;;;;9.00;99.90;;;;;;5055283;28;19944;-72
2023/01/08 05:19:15;;;;;;;;;;;9.00;99.90;;;;;;5054834;28;19905;-72
2023/01/08 05:21:40;;;;;;;;;;;8.90;99.90;;;;;;5036881;28;20312;-73
2023/01/08 05:24:06;;;;;;;;;;;8.80;99.90;;;;;;5054477;28;19905;-69
2023/01/08 05:26:31;;;;;;;;;;;8.80;99.90;;;;;;5037101;28;19911;-69
2023/01/08 05:28:57;;;;;;;;;;;8.80;99.90;;;;;;5037786;28;19905;-70
2023/01/08 05:31:22;;;;;;;;;;;8.90;99.90;;;;;;5056074;28;19904;-70
2023/01/08 05:33:48;;;;;;;;;;;8.90;99.90;;;;;;5055666;28;19958;-71
2023/01/08 05:36:13;;;;;;;;;;;8.90;99.90;;;;;;5037644;28;19962;-72
2023/01/08 05:38:39;;;;;;;;;;;8.80;99.90;;;;;;5055627;28;20321;-72
2023/01/08 05:41:05;;;;;;;;;;;8.80;99.90;;;;;;5036864;28;19909;-73
2023/01/08 05:43:31;;;;;;;;;;;8.80;99.90;;;;;;5054971;28;19908;-71
2023/01/08 05:45:57;;;;;;;;;;;8.80;99.90;;;;;;5037344;28;20315;-71
2023/01/08 05:48:22;;;;;;;;;;;8.80;99.90;;;;;;5055643;28;19954;-71
2023/01/08 05:50:49;;;;;;;;;;;8.80;99.90;;;;;;5037938;28;19905;-72
2023/01/08 05:53:14;;;;;;;;;;;8.80;99.90;;;;;;5037683;28;20035;-73
2023/01/08 05:55:39;;;;;;;;;;;8.80;99.90;;;;;;5054187;28;19970;-72
2023/01/08 05:58:05;;;;;;;;;;;8.80;99.90;;;;;;5054299;28;19911;-72
2023/01/08 06:00:31;;;;;;;;;;;8.70;99.90;;;;;;5054205;28;20403;-72
2023/01/08 06:02:57;;;;;;;;;;;8.60;99.90;;;;;;5054181;28;19904;-73
2023/01/08 06:05:22;;;;;;;;;;;8.60;99.90;;;;;;5054048;28;19911;-73
2023/01/08 06:07:48;;;;;;;;;;;8.60;99.90;;;;;;5053978;28;19909;-73
2023/01/08 06:10:13;;;;;;;;;;;8.60;99.90;;;;;;5053680;28;19911;-72
2023/01/08 06:12:39;;;;;;;;;;;8.60;99.90;;;;;;5054358;28;19905;-72
2023/01/08 06:15:04;;;;;;;;;;;8.70;99.90;;;;;;5039688;28;19923;-72
2023/01/08 06:17:30;;;;;;;;;;;8.70;99.90;;;;;;5054453;28;19908;-74
2023/01/08 06:19:55;;;;;;;;;;;8.60;99.90;;;;;;5055071;28;19904;-74
2023/01/08 06:22:21;;;;;;;;;;;8.60;99.90;;;;;;5036736;28;19912;-72
2023/01/08 06:24:46;;;;;;;;;;;8.70;99.90;;;;;;5054076;28;19904;-71
2023/01/08 06:27:12;;;;;;;;;;;8.70;99.90;;;;;;5054318;28;20281;-71
2023/01/08 06:29:37;;;;;;;;;;;8.60;99.90;;;;;;5053981;28;20292;-70
2023/01/08 06:32:03;;;;;;;;;;;8.60;99.90;;;;;;5053914;28;19904;-71
2023/01/08 06:34:28;;;;;;;;;;;8.60;99.90;;;;;;5035837;28;20367;-70
2023/01/08 06:36:54;;;;;;;;;;;8.60;99.90;;;;;;5059616;28;20460;-71
2023/01/08 06:39:19;;;;;;;;;;;8.60;99.90;;;;;;5060260;28;19909;-73
2023/01/08 06:41:45;;;;;;;;;;;8.60;99.90;;;;;;5064299;28;19916;-71
2023/01/08 06:44:10;;;;;;;;;;;8.60;99.90;;;;;;5043125;28;19904;-71
2023/01/08 06:46:39;;;;;;;;;;;8.60;99.90;;;;;;5060526;28;19905;-70
2023/01/08 06:49:07;;;;;;;;;;;8.70;99.90;;;;;;5060701;28;19912;-69
2023/01/08 06:51:33;;;;;;;;;;;8.60;99.90;;;;;;5062850;28;19953;-70
2023/01/08 06:53:58;;;;;;;;;;;8.60;99.90;;;;;;5060253;28;20347;-71
2023/01/08 06:56:24;;;;;;;;;;;8.70;99.90;;;;;;5059949;28;19909;-70
2023/01/08 06:58:49;;;;;;;;;;;8.60;99.90;;;;;;5060748;28;19948;-70
2023/01/08 07:01:15;;;;;;;;;;;8.60;99.90;;;;;;5060295;28;19928;-71
2023/01/08 07:03:41;;;;;;;;;;;8.70;99.90;;;;;;5060448;28;19912;-69
2023/01/08 07:06:11;;;;;;;;;;;8.60;99.90;;;;;;5063387;28;19904;-70
2023/01/08 07:08:37;;;;;;;;;;;8.60;99.90;;;;;;5042649;28;19908;-69
2023/01/08 07:11:02;;;;;;;;;;;8.60;99.90;;;;;;5042761;28;19970;-68
2023/01/08 07:13:28;;;;;;;;;;;8.70;99.90;;;;;;5042672;28;19928;-68
2023/01/08 07:15:54;;;;;;;;;;;8.70;99.90;;;;;;5057428;28;19913;-68
2023/01/08 07:18:20;;;;;;;;;;;8.70;99.90;;;;;;5060027;28;20444;-68
2023/01/08 07:20:46;;;;;;;;;;;8.70;99.90;;;;;;5059547;28;20015;-68
2023/01/08 07:23:12;;;;;;;;;;;8.70;99.90;;;;;;5041731;28;20309;-69
2023/01/08 07:25:37;;;;;;;;;;;8.70;99.90;;;;;;5051453;28;19935;-67
2023/01/08 07:28:03;;;;;;;;;;;8.80;99.90;;;;;;5044732;28;19999;-69
2023/01/08 07:30:28;;;;;;;;;;;8.80;99.90;;;;;;5056134;28;19909;-67
2023/01/08 07:32:56;;;;;;;;;;;8.70;99.90;;;;;;5050627;28;20023;-68
2023/01/08 07:35:22;;;;;;;;;;;8.70;99.90;;;;;;5043576;28;19972;-69
2023/01/08 07:37:47;;;;;;;;;;;8.70;99.90;;;;;;5061123;28;19912;-68
2023/01/08 07:40:13;;;;;;;;;;;8.90;99.90;;;;;;5043908;28;19995;-69
2023/01/08 07:42:38;;;;;;;;;;;8.90;99.90;;;;;;5038842;28;19931;-70
2023/01/08 07:45:04;;;;;;;;;;;8.90;99.90;;;;;;5043984;28;19905;-69
2023/01/08 07:47:30;;;;;;;;;;;8.90;99.90;;;;;;5061222;28;19909;-68
2023/01/08 07:49:55;;;;;;;;;;;9.00;99.90;;;;;;5058110;28;20376;-69
2023/01/08 07:52:20;;;;;;;;;;;9.20;99.90;;;;;;5039799;28;19905;-70
2023/01/08 07:54:46;;;;;;;;;;;9.20;99.90;;;;;;5043286;28;19979;-71
2023/01/08 07:57:12;;;;;;;;;;;9.20;99.90;;;;;;5043868;28;19912;-70
2023/01/08 07:59:37;;;;;;;;;;;9.10;99.90;;;;;;5042524;28;19928;-70
2023/01/08 08:02:03;;;;;;;;;;;9.20;99.90;;;;;;5041716;28;19905;-72
2023/01/08 08:04:29;;;;;;;;;;;9.20;99.90;;;;;;5040532;28;19905;-71
2023/01/08 08:06:54;;;;;;;;;;;9.20;99.90;;;;;;5041804;28;20424;-71
2023/01/08 08:09:20;;;;;;;;;;;9.30;99.90;;;;;;5020630;28;19959;-72
2023/01/08 08:11:45;;;;;;;;;;;9.40;99.90;;;;;;5036898;28;19906;-71
2023/01/08 08:14:12;;;;;;;;;;;9.30;99.90;;;;;;5035489;28;19921;-70
2023/01/08 08:16:37;;;;;;;;;;;9.30;99.90;;;;;;5035314;28;20004;-72
2023/01/08 08:19:02;;;;;;;;;;;9.30;99.90;;;;;;5036871;28;19909;-73
2023/01/08 08:21:29;;;;;;;;;;;9.30;99.90;;;;;;5036180;28;19905;-73
2023/01/08 08:23:55;;;;;;;;;;;9.20;99.90;;;;;;5036262;28;19913;-73
2023/01/08 08:26:21;;;;;;;;;;;9.20;99.90;;;;;;5043914;28;19915;-73
2023/01/08 08:28:46;;;;;;;;;;;9.20;99.90;;;;;;5054773;28;20011;-73
2023/01/08 08:31:12;;;;;;;;;;;9.20;99.90;;;;;;5054680;28;19911;-73
2023/01/08 08:33:37;;;;;;;;;;;9.20;99.90;;;;;;5055917;28;19905;-74
2023/01/08 08:36:03;;;;;;;;;;;9.20;99.90;;;;;;5037785;28;19916;-73
2023/01/08 08:38:28;;;;;;;;;;;9.20;99.90;;;;;;5055722;28;19949;-74
2023/01/08 08:40:54;;;;;;;;;;;9.30;99.90;;;;;;5037955;28;19911;-74
2023/01/08 08:43:19;;;;;;;;;;;9.30;99.90;;;;;;5055878;28;20050;-74
2023/01/08 08:45:45;;;;;;;;;;;9.40;99.90;;;;;;5038658;28;19958;-74
2023/01/08 08:48:10;;;;;;;;;;;9.40;99.90;;;;;;5056936;28;19908;-75
2023/01/08 08:50:36;;;;;;;;;;;9.40;99.90;;;;;;5039196;28;20311;-75
2023/01/08 08:53:03;;;;;;;;;;;9.40;99.90;;;;;;5055946;28;19905;-74
2023/01/08 08:55:29;;;;;;;;;;;9.40;99.90;;;;;;5034954;28;20358;-74
2023/01/08 08:58:00;;;;;;;;;;;9.40;99.90;;;;;;5055291;28;19995;-74
2023/01/08 09:00:26;;;;;;;;;;;9.40;99.90;;;;;;5037675;28;19904;-74
2023/01/08 09:02:51;;;;;;;;;;;9.40;99.90;;;;;;5037083;28;19955;-72
2023/01/08 09:05:17;;;;;;;;;;;9.30;99.90;;;;;;5053893;28;19991;-73
2023/01/08 09:07:42;;;;;;;;;;;9.30;99.90;;;;;;5035178;28;19913;-72
2023/01/08 09:10:07;;;;;;;;;;;9.40;99.90;;;;;;5040360;28;19905;-73
2023/01/08 09:12:33;;;;;;;;;;;9.30;99.90;;;;;;5053137;28;19905;-73
2023/01/08 09:14:58;;;;;;;;;;;9.30;99.90;;;;;;5055384;28;19919;-72
2023/01/08 09:17:24;;;;;;;;;;;9.30;99.90;;;;;;5043258;28;20362;-73
2023/01/08 09:19:50;;;;;;;;;;;9.20;99.90;;;;;;5035044;28;19905;-73
2023/01/08 09:22:16;;;;;;;;;;;9.30;99.90;;;;;;5017244;28;20265;-76
2023/01/08 09:24:41;;;;;;;;;;;9.40;99.90;;;;;;5035672;28;20286;-75
2023/01/08 09:27:07;;;;;;;;;;;9.40;99.90;;;;;;5035674;28;19916;-75
2023/01/08 09:29:32;;;;;;;;;;;9.40;99.90;;;;;;5035397;28;19905;-74
2023/01/08 09:31:59;;;;;;;;;;;9.40;99.90;;;;;;5034847;28;19991;-74
2023/01/08 09:34:24;;;;;;;;;;;9.40;99.90;;;;;;5034685;28;19905;-74
2023/01/08 09:36:51;;;;;;;;;;;9.30;99.90;;;;;;5047941;28;20378;-74
2023/01/08 09:39:16;;;;;;;;;;;9.40;99.90;;;;;;5054697;28;19912;-74
2023/01/08 09:41:43;;;;;;;;;;;9.40;99.90;;;;;;5036598;28;20265;-74
2023/01/08 09:44:12;;;;;;;;;;;9.30;99.90;;;;;;5054617;28;19904;-74
2023/01/08 09:46:38;;;;;;;;;;;9.30;99.90;;;;;;5055030;28;19968;-74
2023/01/08 09:49:05;;;;;;;;;;;9.30;99.90;;;;;;5038155;28;20334;-75
2023/01/08 09:51:34;;;;;;;;;;;9.20;99.90;;;;;;5036527;28;19927;-75
2023/01/08 09:53:59;;;;;;;;;;;9.20;99.90;;;;;;5030569;28;20290;-72
2023/01/08 09:56:25;;;;;;;;;;;9.30;99.90;;;;;;5034241;28;19909;-73
2023/01/08 09:58:57;;;;;;;;;;;9.30;99.90;;;;;;5033041;28;20275;-71
2023/01/08 10:01:24;;;;;;;;;;;9.30;99.90;;;;;;5016918;28;19915;-71
2023/01/08 10:03:58;;;;;;;;;;;9.30;99.90;;;;;;5033752;28;19905;-71
2023/01/08 10:06:24;;;;;;;;;;;9.30;99.90;;;;;;5038229;28;19905;-75
2023/01/08 10:08:50;;;;;;;;;;;9.40;99.90;;;;;;5030623;28;19981;-74
2023/01/08 10:11:16;;;;;;;;;;;9.30;99.90;;;;;;5053041;28;19909;-73
2023/01/08 10:13:44;;;;;;;;;;;9.40;99.90;;;;;;5056904;28;19999;-72
2023/01/08 10:16:14;;;;;;;;;;;9.40;99.90;;;;;;5039211;28;19909;-74
2023/01/08 10:18:41;;;;;;;;;;;9.50;99.90;;;;;;5053060;28;19960;-74
2023/01/08 10:21:10;;;;;;;;;;;9.50;99.90;;;;;;5038234;28;19912;-71
2023/01/08 10:23:36;;;;;;;;;;;9.50;99.90;;;;;;5049757;28;19913;-72
2023/01/08 10:26:02;;;;;;;;;;;9.50;99.90;;;;;;5053334;28;19905;-67
2023/01/08 10:28:28;;;;;;;;;;;9.60;99.90;;;;;;5053893;28;19946;-69
2023/01/08 10:31:03;;;;;;;;;;;9.70;99.90;;;;;;5035842;28;20265;-71
2023/01/08 10:33:40;;;;;;;;;;;9.70;99.90;;;;;;5053966;28;19905;-71
2023/01/08 10:36:07;;;;;;;;;;;9.80;99.90;;;;;;5029367;28;19999;-71
2023/01/08 10:38:34;;;;;;;;;;;9.90;99.90;;;;;;5018521;28;19944;-75
2023/01/08 10:41:02;;;;;;;;;;;9.80;99.90;;;;;;5034257;28;19959;-74
2023/01/08 10:43:36;;;;;;;;;;;9.80;99.90;;;;;;5034002;28;20312;-71
2023/01/08 10:46:02;;;;;;;;;;;10.00;99.90;;;;;;5034008;28;19905;-71
2023/01/08 10:48:39;;;;;;;;;;;10.00;99.90;;;;;;5032828;28;20312;-71
2023/01/08 10:51:06;;;;;;;;;;;10.00;99.90;;;;;;5017839;28;19941;-73
2023/01/08 10:53:32;;;;;;;;;;;10.10;99.90;;;;;;5034236;28;19951;-73
2023/01/08 10:55:58;;;;;;;;;;;10.00;99.90;;;;;;5016358;28;19905;-73
2023/01/08 10:58:26;;;;;;;;;;;10.20;99.90;;;;;;5035471;28;19905;-73
2023/01/08 11:00:51;;;;;;;;;;;10.30;99.90;;;;;;5019857;28;19905;-72
2023/01/08 11:03:26;;;;;;;;;;;10.60;99.90;;;;;;5040238;28;19905;-72
2023/01/08 11:05:51;;;;;;;;;;;10.70;99.90;;;;;;5033388;28;20243;-74
2023/01/08 11:08:18;;;;;;;;;;;10.90;99.90;;;;;;5015698;28;19955;-74
2023/01/08 11:11:00;;;;;;;;;;;10.70;99.90;;;;;;5033972;28;20390;-75
2023/01/08 11:13:27;;;;;;;;;;;10.70;99.90;;;;;;5033684;28;19913;-75
2023/01/08 11:16:06;;;;;;;;;;;10.70;99.90;;;;;;5046756;22;19893;-74
2023/01/08 11:18:40;;;;;;;;;;;10.60;99.90;;;;;;5076608;28;19912;-71
2023/01/08 11:21:17;;;;;;;;;;;10.70;99.90;;;;;;5055824;28;19904;-69
2023/01/08 11:23:42;;;;;;;;;;;10.60;99.90;;;;;;5077141;28;19951;-73
2023/01/08 11:26:19;;;;;;;;;;;10.60;99.90;;;;;;5072388;28;19904;-73
2023/01/08 11:28:47;;;;;;;;;;;10.60;99.90;;;;;;5040100;28;19917;-73
2023/01/08 11:31:18;;;;;;;;;;;10.60;99.90;;;;;;5042073;28;20019;-73
2023/01/08 11:33:43;;;;;;;;;;;10.70;99.90;;;;;;5041444;28;19955;-73
2023/01/08 11:36:25;;;;;;;;;;;10.90;99.90;;;;;;5040985;28;19905;-72
2023/01/08 11:38:50;;;;;;;;;;;11.00;99.90;;;;;;5058798;28;20000;-73
2023/01/08 11:41:15;;;;;;;;;;;11.10;99.90;;;;;;5040285;28;20047;-74
2023/01/08 11:43:45;;;;;;;;;;;11.10;99.90;;;;;;5057754;28;20034;-72
2023/01/08 11:46:24;;;;;;;;;;;11.20;99.90;;;;;;5040091;28;19909;-72
2023/01/08 11:49:07;;;;;;;;;;;11.20;99.90;;;;;;5039502;28;20006;-72
2023/01/08 11:51:57;;;;;;;;;;;11.10;99.90;;;;;;5040331;28;19904;-73
2023/01/08 11:54:37;;;;;;;;;;;11.20;99.90;;;;;;5056969;28;19955;-73
2023/01/08 11:57:05;;;;;;;;;;;11.10;99.90;;;;;;5056414;28;20441;-74
2023/01/08 11:59:49;;;;;;;;;;;11.20;99.90;;;;;;5056317;28;19905;-74
2023/01/08 12:02:17;;;;;;;;;;;11.10;99.90;;;;;;5038058;28;20436;-71
2023/01/08 12:04:52;;;;;;;;;;;11.20;99.90;;;;;;5057701;28;19927;-73
2023/01/08 12:07:25;;;;;;;;;;;11.30;99.90;;;;;;5075998;28;19933;-71
2023/01/08 12:10:10;;;;;;;;;;;11.20;99.90;;;;;;5075954;28;20375;-69
2023/01/08 12:12:55;;;;;;;;;;;11.20;99.90;;;;;;5056709;28;20369;-70
2023/01/08 12:15:20;;;;;;;;;;;11.20;99.90;;;;;;5039350;28;19904;-70
2023/01/08 12:18:01;;;;;;;;;;;11.20;99.90;;;;;;5057610;28;19919;-77
2023/01/08 12:20:38;;;;;;;;;;;11.20;99.90;;;;;;5054456;28;20054;-76
2023/01/08 12:23:06;;;;;;;;;;;11.20;99.90;;;;;;5055005;28;19905;-74
2023/01/08 12:25:36;;;;;;;;;;;11.00;99.90;;;;;;5054990;28;19904;-72
2023/01/08 12:28:20;;;;;;;;;;;10.90;99.90;;;;;;5037681;28;19916;-69
2023/01/08 12:30:50;;;;;;;;;;;11.00;99.90;;;;;;5055524;28;19911;-72
2023/01/08 12:33:32;;;;;;;;;;;11.00;99.90;;;;;;5054416;28;19995;-71
2023/01/08 12:36:01;;;;;;;;;;;10.90;99.90;;;;;;5055326;28;19904;-72
2023/01/08 12:38:42;;;;;;;;;;;10.90;99.90;;;;;;5054023;28;19931;-74
2023/01/08 12:41:09;;;;;;;;;;;10.90;99.90;;;;;;5037843;28;20003;-71
2023/01/08 12:43:47;;;;;;;;;;;10.90;99.90;;;;;;5054879;28;19911;-74
2023/01/08 12:46:15;;;;;;;;;;;11.00;99.90;;;;;;5055528;28;19905;-75
2023/01/08 12:48:42;;;;;;;;;;;11.10;99.90;;;;;;5057088;28;19957;-73
2023/01/08 12:51:26;;;;;;;;;;;11.10;99.90;;;;;;5075387;28;19908;-73
2023/01/08 12:54:21;;;;;;;;;;;11.20;99.90;;;;;;5057413;28;19927;-73
2023/01/08 12:56:49;;;;;;;;;;;11.30;99.90;;;;;;4986419;28;19917;-74
2023/01/08 12:59:18;;;;;;;;;;;11.10;99.90;;;;;;5075743;28;19904;-73
2023/01/08 13:01:43;;;;;;;;;;;11.10;99.90;;;;;;5058416;28;19912;-73
2023/01/08 13:04:09;;;;;;;;;;;11.10;99.90;;;;;;5077455;28;19920;-73
2023/01/08 13:06:35;;;;;;;;;;;11.10;99.90;;;;;;5058136;28;19913;-73
2023/01/08 13:09:01;;;;;;;;;;;11.00;99.90;;;;;;5041896;28;19909;-72
2023/01/08 13:11:27;;;;;;;;;;;11.10;99.90;;;;;;5042681;28;19909;-71
2023/01/08 13:14:10;;;;;;;;;;;11.10;99.90;;;;;;5041361;28;19955;-73
2023/01/08 13:16:39;;;;;;;;;;;11.00;99.90;;;;;;5044616;28;19913;-73
2023/01/08 13:19:05;;;;;;;;;;;10.90;99.90;;;;;;5051822;28;19999;-74
2023/01/08 13:21:35;;;;;;;;;;;11.00;99.90;;;;;;5053467;28;19905;-73
2023/01/08 13:24:19;;;;;;;;;;;11.10;99.90;;;;;;5054271;28;19971;-73
2023/01/08 13:26:45;;;;;;;;;;;11.10;99.90;;;;;;5054363;28;19943;-75
2023/01/08 13:29:29;;;;;;;;;;;11.20;99.90;;;;;;5060519;28;19905;-75
2023/01/08 13:31:54;;;;;;;;;;;11.10;99.90;;;;;;5037001;28;19905;-74
2023/01/08 13:34:35;;;;;;;;;;;11.30;99.90;;;;;;5036221;28;19905;-73
2023/01/08 13:37:01;;;;;;;;;;;11.40;99.90;;;;;;5042737;28;19904;-74
2023/01/08 13:39:37;;;;;;;;;;;11.30;99.90;;;;;;5056263;28;19916;-74
2023/01/08 13:42:21;;;;;;;;;;;11.30;99.90;;;;;;5058928;28;19904;-73
2023/01/08 13:44:48;;;;;;;;;;;11.50;99.90;;;;;;5060885;28;19922;-75
2023/01/08 13:47:19;;;;;;;;;;;11.40;99.90;;;;;;5059603;28;19999;-75
2023/01/08 13:49:46;;;;;;;;;;;11.40;99.90;;;;;;5057171;28;19904;-74
2023/01/08 13:52:30;;;;;;;;;;;11.40;99.90;;;;;;5058371;28;20024;-75
2023/01/08 13:54:56;;;;;;;;;;;11.30;99.90;;;;;;5057952;28;19931;-76
2023/01/08 13:57:22;;;;;;;;;;;11.20;99.90;;;;;;5061152;28;19904;-77
2023/01/08 13:59:47;;;;;;;;;;;11.20;99.90;;;;;;5058145;28;19919;-77
2023/01/08 14:02:43;;;;;;;;;;;11.30;99.90;;;;;;5040049;28;19905;-76
2023/01/08 14:05:26;;;;;;;;;;;11.30;99.90;;;;;;4960938;28;19961;-76
2023/01/08 14:07:51;;;;;;;;;;;11.20;99.90;;;;;;4975344;28;19910;-76
2023/01/08 14:10:17;;;;;;;;;;;11.20;99.90;;;;;;4949488;28;20322;-76
2023/01/08 14:12:42;;;;;;;;;;;11.20;99.90;;;;;;4974585;28;19910;-75
2023/01/08 14:15:14;;;;;;;;;;;11.20;99.90;;;;;;4961734;28;20383;-73
2023/01/08 14:17:42;;;;;;;;;;;11.40;99.90;;;;;;4958435;28;19920;-73
2023/01/08 14:20:09;;;;;;;;;;;11.30;99.90;;;;;;4964688;28;19914;-72
2023/01/08 14:22:34;;;;;;;;;;;11.10;99.90;;;;;;4968783;28;19934;-72
2023/01/08 14:25:02;;;;;;;;;;;11.10;99.90;;;;;;4971837;28;19910;-72
2023/01/08 14:27:28;;;;;;;;;;;11.10;99.90;;;;;;4971414;28;20045;-71
2023/01/08 14:29:54;;;;;;;;;;;11.00;99.90;;;;;;4955831;28;19932;-74